sensor_id;sensor_type;location;lat;lon;timestamp;P1;durP1;ratioP1;P2;durP2;ratioP2
67051;SDS011;53957;47.222;18.670;2023-02-01T00:01:17;4.80;;;2.00;;
67051;SDS011;53957;47.222;18.670;2023-02-01T00:04:20;4.97;;;2.92;;
67051;SDS011;53957;47.222;18.670;2023-02-01T00:07:23;2.20;;;2.05;;
67051;SDS011;53957;47.222;18.670;2023-02-01T00:10:26;4.10;;;2.03;;
67051;SDS011;53957;47.222;18.670;2023-02-01T00:13:30;2.75;;;2.20;;
67051;SDS011;53957;47.222;18.670;2023-02-01T00:16:34;2.92;;;2.00;;
67051;SDS011;53957;47.222;18.670;2023-02-01T00:19:36;6.05;;;2.37;;
67051;SDS011;53957;47.222;18.670;2023-02-01T00:22:39;4.90;;;2.45;;
67051;SDS011;53957;47.222;18.670;2023-02-01T00:25:42;6.65;;;3.60;;
67051;SDS011;53957;47.222;18.670;2023-02-01T00:28:45;6.50;;;2.50;;
67051;SDS011;53957;47.222;18.670;2023-02-01T00:31:49;4.18;;;2.53;;
67051;SDS011;53957;47.222;18.670;2023-02-01T00:34:54;2.30;;;2.10;;
67051;SDS011;53957;47.222;18.670;2023-02-01T00:37:57;6.10;;;2.58;;
67051;SDS011;53957;47.222;18.670;2023-02-01T00:41:11;3.45;;;2.50;;
67051;SDS011;53957;47.222;18.670;2023-02-01T00:44:16;2.53;;;2.33;;
67051;SDS011;53957;47.222;18.670;2023-02-01T00:47:19;3.35;;;2.62;;
67051;SDS011;53957;47.222;18.670;2023-02-01T00:50:22;2.87;;;2.58;;
67051;SDS011;53957;47.222;18.670;2023-02-01T00:53:26;4.78;;;2.75;;
67051;SDS011;53957;47.222;18.670;2023-02-01T00:56:29;3.90;;;2.58;;
67051;SDS011;53957;47.222;18.670;2023-02-01T00:59:34;5.03;;;3.20;;
67051;SDS011;53957;47.222;18.670;2023-02-01T01:02:36;5.15;;;2.80;;
67051;SDS011;53957;47.222;18.670;2023-02-01T01:05:40;6.40;;;2.55;;
67051;SDS011;53957;47.222;18.670;2023-02-01T01:08:42;2.58;;;2.37;;
67051;SDS011;53957;47.222;18.670;2023-02-01T01:11:46;7.00;;;2.87;;
67051;SDS011;53957;47.222;18.670;2023-02-01T01:14:49;5.30;;;2.83;;
67051;SDS011;53957;47.222;18.670;2023-02-01T01:17:52;5.32;;;2.28;;
67051;SDS011;53957;47.222;18.670;2023-02-01T01:20:55;5.10;;;2.55;;
67051;SDS011;53957;47.222;18.670;2023-02-01T01:23:58;4.55;;;2.35;;
67051;SDS011;53957;47.222;18.670;2023-02-01T01:27:01;5.47;;;2.67;;
67051;SDS011;53957;47.222;18.670;2023-02-01T01:30:05;4.45;;;2.70;;
67051;SDS011;53957;47.222;18.670;2023-02-01T01:33:08;5.97;;;2.75;;
67051;SDS011;53957;47.222;18.670;2023-02-01T01:36:11;5.45;;;2.15;;
67051;SDS011;53957;47.222;18.670;2023-02-01T01:39:15;3.08;;;2.08;;
67051;SDS011;53957;47.222;18.670;2023-02-01T01:42:18;3.97;;;2.45;;
67051;SDS011;53957;47.222;18.670;2023-02-01T01:45:31;3.65;;;2.10;;
67051;SDS011;53957;47.222;18.670;2023-02-01T01:48:36;4.72;;;2.50;;
67051;SDS011;53957;47.222;18.670;2023-02-01T01:51:59;2.83;;;2.22;;
67051;SDS011;53957;47.222;18.670;2023-02-01T01:55:05;3.20;;;2.40;;
67051;SDS011;53957;47.222;18.670;2023-02-01T01:58:10;3.60;;;2.40;;
67051;SDS011;53957;47.222;18.670;2023-02-01T02:01:17;2.55;;;2.37;;
67051;SDS011;53957;47.222;18.670;2023-02-01T02:04:21;4.43;;;2.42;;
67051;SDS011;53957;47.222;18.670;2023-02-01T02:07:26;4.32;;;2.20;;
67051;SDS011;53957;47.222;18.670;2023-02-01T02:10:33;5.18;;;2.20;;
67051;SDS011;53957;47.222;18.670;2023-02-01T02:13:55;2.67;;;2.47;;
67051;SDS011;53957;47.222;18.670;2023-02-01T02:20:27;7.15;;;2.75;;
67051;SDS011;53957;47.222;18.670;2023-02-01T02:40:33;2.83;;;2.42;;
67051;SDS011;53957;47.222;18.670;2023-02-01T02:43:43;6.12;;;2.95;;
67051;SDS011;53957;47.222;18.670;2023-02-01T02:47:11;4.12;;;2.75;;
67051;SDS011;53957;47.222;18.670;2023-02-01T02:50:32;2.67;;;2.30;;
67051;SDS011;53957;47.222;18.670;2023-02-01T02:54:05;2.97;;;2.35;;
67051;SDS011;53957;47.222;18.670;2023-02-01T02:57:37;2.50;;;2.30;;
67051;SDS011;53957;47.222;18.670;2023-02-01T03:01:01;7.78;;;2.85;;
67051;SDS011;53957;47.222;18.670;2023-02-01T03:04:24;3.53;;;2.60;;
67051;SDS011;53957;47.222;18.670;2023-02-01T03:14:16;2.20;;;2.10;;
67051;SDS011;53957;47.222;18.670;2023-02-01T03:17:25;5.18;;;2.45;;
67051;SDS011;53957;47.222;18.670;2023-02-01T03:20:35;4.50;;;2.58;;
67051;SDS011;53957;47.222;18.670;2023-02-01T03:23:41;4.25;;;3.15;;
67051;SDS011;53957;47.222;18.670;2023-02-01T03:26:49;4.95;;;4.05;;
67051;SDS011;53957;47.222;18.670;2023-02-01T03:33:01;4.30;;;3.58;;
67051;SDS011;53957;47.222;18.670;2023-02-01T03:39:24;7.90;;;3.70;;
67051;SDS011;53957;47.222;18.670;2023-02-01T03:42:38;8.02;;;4.70;;
67051;SDS011;53957;47.222;18.670;2023-02-01T03:45:48;8.13;;;5.25;;
67051;SDS011;53957;47.222;18.670;2023-02-01T03:48:57;7.20;;;6.10;;
67051;SDS011;53957;47.222;18.670;2023-02-01T03:52:01;8.98;;;5.65;;
67051;SDS011;53957;47.222;18.670;2023-02-01T03:55:06;20.95;;;11.48;;
67051;SDS011;53957;47.222;18.670;2023-02-01T03:58:16;11.65;;;7.85;;
67051;SDS011;53957;47.222;18.670;2023-02-01T04:01:21;22.15;;;11.98;;
67051;SDS011;53957;47.222;18.670;2023-02-01T04:04:25;10.63;;;6.20;;
67051;SDS011;53957;47.222;18.670;2023-02-01T04:07:28;2.85;;;2.33;;
67051;SDS011;53957;47.222;18.670;2023-02-01T04:10:31;1.70;;;1.60;;
67051;SDS011;53957;47.222;18.670;2023-02-01T04:13:35;1.30;;;1.30;;
67051;SDS011;53957;47.222;18.670;2023-02-01T04:16:38;1.95;;;1.80;;
67051;SDS011;53957;47.222;18.670;2023-02-01T04:19:41;1.55;;;1.55;;
67051;SDS011;53957;47.222;18.670;2023-02-01T04:22:44;1.83;;;1.73;;
67051;SDS011;53957;47.222;18.670;2023-02-01T04:25:46;2.00;;;1.90;;
67051;SDS011;53957;47.222;18.670;2023-02-01T04:28:50;1.85;;;1.75;;
67051;SDS011;53957;47.222;18.670;2023-02-01T04:31:53;5.22;;;3.47;;
67051;SDS011;53957;47.222;18.670;2023-02-01T04:34:56;2.65;;;2.20;;
67051;SDS011;53957;47.222;18.670;2023-02-01T04:37:59;2.12;;;1.92;;
67051;SDS011;53957;47.222;18.670;2023-02-01T04:41:03;3.40;;;2.10;;
67051;SDS011;53957;47.222;18.670;2023-02-01T04:44:06;2.37;;;2.20;;
67051;SDS011;53957;47.222;18.670;2023-02-01T04:47:09;1.75;;;1.67;;
67051;SDS011;53957;47.222;18.670;2023-02-01T04:50:12;2.00;;;1.90;;
67051;SDS011;53957;47.222;18.670;2023-02-01T04:53:15;1.90;;;1.80;;
67051;SDS011;53957;47.222;18.670;2023-02-01T04:56:19;1.85;;;1.75;;
67051;SDS011;53957;47.222;18.670;2023-02-01T04:59:22;1.73;;;1.62;;
67051;SDS011;53957;47.222;18.670;2023-02-01T05:02:25;2.42;;;2.22;;
67051;SDS011;53957;47.222;18.670;2023-02-01T05:05:28;5.18;;;1.80;;
67051;SDS011;53957;47.222;18.670;2023-02-01T05:08:31;2.40;;;2.20;;
67051;SDS011;53957;47.222;18.670;2023-02-01T05:11:35;2.35;;;2.15;;
67051;SDS011;53957;47.222;18.670;2023-02-01T05:14:56;2.15;;;1.92;;
67051;SDS011;53957;47.222;18.670;2023-02-01T05:17:59;2.00;;;1.90;;
67051;SDS011;53957;47.222;18.670;2023-02-01T05:21:02;2.35;;;1.80;;
67051;SDS011;53957;47.222;18.670;2023-02-01T05:24:07;2.75;;;2.53;;
67051;SDS011;53957;47.222;18.670;2023-02-01T05:30:19;1.98;;;1.87;;
67051;SDS011;53957;47.222;18.670;2023-02-01T05:33:22;2.20;;;2.08;;
67051;SDS011;53957;47.222;18.670;2023-02-01T05:36:25;2.58;;;2.10;;
67051;SDS011;53957;47.222;18.670;2023-02-01T05:39:28;1.92;;;1.83;;
67051;SDS011;53957;47.222;18.670;2023-02-01T05:42:31;2.08;;;1.98;;
67051;SDS011;53957;47.222;18.670;2023-02-01T05:45:34;1.80;;;1.70;;
67051;SDS011;53957;47.222;18.670;2023-02-01T05:48:38;3.17;;;1.90;;
67051;SDS011;53957;47.222;18.670;2023-02-01T05:51:41;2.20;;;1.95;;
67051;SDS011;53957;47.222;18.670;2023-02-01T05:54:45;2.30;;;2.20;;
67051;SDS011;53957;47.222;18.670;2023-02-01T05:57:49;1.60;;;1.60;;
67051;SDS011;53957;47.222;18.670;2023-02-01T06:00:52;2.00;;;1.90;;
67051;SDS011;53957;47.222;18.670;2023-02-01T06:04:04;2.42;;;2.25;;
67051;SDS011;53957;47.222;18.670;2023-02-01T06:07:07;1.92;;;1.83;;
67051;SDS011;53957;47.222;18.670;2023-02-01T06:10:11;2.03;;;1.92;;
67051;SDS011;53957;47.222;18.670;2023-02-01T06:13:23;2.55;;;2.00;;
67051;SDS011;53957;47.222;18.670;2023-02-01T06:16:26;1.95;;;1.85;;
67051;SDS011;53957;47.222;18.670;2023-02-01T06:19:29;2.33;;;2.15;;
67051;SDS011;53957;47.222;18.670;2023-02-01T06:22:33;2.85;;;2.25;;
67051;SDS011;53957;47.222;18.670;2023-02-01T06:25:38;2.95;;;2.67;;
67051;SDS011;53957;47.222;18.670;2023-02-01T06:28:41;2.30;;;2.10;;
67051;SDS011;53957;47.222;18.670;2023-02-01T06:31:44;2.22;;;2.12;;
67051;SDS011;53957;47.222;18.670;2023-02-01T06:34:48;2.33;;;1.87;;
67051;SDS011;53957;47.222;18.670;2023-02-01T06:37:58;1.62;;;1.62;;
67051;SDS011;53957;47.222;18.670;2023-02-01T06:41:01;2.40;;;2.20;;
67051;SDS011;53957;47.222;18.670;2023-02-01T06:44:05;4.50;;;2.80;;
67051;SDS011;53957;47.222;18.670;2023-02-01T06:47:09;4.30;;;2.50;;
67051;SDS011;53957;47.222;18.670;2023-02-01T06:50:11;3.03;;;2.70;;
67051;SDS011;53957;47.222;18.670;2023-02-01T06:53:14;2.20;;;2.10;;
67051;SDS011;53957;47.222;18.670;2023-02-01T06:56:18;2.58;;;2.40;;
67051;SDS011;53957;47.222;18.670;2023-02-01T06:59:22;2.00;;;1.80;;
67051;SDS011;53957;47.222;18.670;2023-02-01T07:02:25;2.53;;;2.33;;
67051;SDS011;53957;47.222;18.670;2023-02-01T07:05:29;2.85;;;2.30;;
67051;SDS011;53957;47.222;18.670;2023-02-01T07:08:33;2.28;;;2.08;;
67051;SDS011;53957;47.222;18.670;2023-02-01T07:11:39;2.20;;;2.10;;
67051;SDS011;53957;47.222;18.670;2023-02-01T07:14:51;1.80;;;1.70;;
67051;SDS011;53957;47.222;18.670;2023-02-01T07:17:54;2.05;;;1.77;;
67051;SDS011;53957;47.222;18.670;2023-02-01T07:20:58;2.95;;;1.98;;
67051;SDS011;53957;47.222;18.670;2023-02-01T07:24:03;3.72;;;2.00;;
67051;SDS011;53957;47.222;18.670;2023-02-01T07:27:07;2.25;;;2.15;;
67051;SDS011;53957;47.222;18.670;2023-02-01T15:31:04;6.45;;;4.90;;
67051;SDS011;53957;47.222;18.670;2023-02-01T15:34:09;6.68;;;4.93;;
67051;SDS011;53957;47.222;18.670;2023-02-01T15:37:14;7.20;;;4.50;;
67051;SDS011;53957;47.222;18.670;2023-02-01T15:40:20;8.35;;;6.70;;
67051;SDS011;53957;47.222;18.670;2023-02-01T15:43:27;7.95;;;6.80;;
67051;SDS011;53957;47.222;18.670;2023-02-01T15:46:44;9.20;;;7.03;;
67051;SDS011;53957;47.222;18.670;2023-02-01T15:49:50;7.53;;;6.28;;
67051;SDS011;53957;47.222;18.670;2023-02-01T15:52:59;12.82;;;8.43;;
67051;SDS011;53957;47.222;18.670;2023-02-01T15:56:03;11.88;;;9.45;;
67051;SDS011;53957;47.222;18.670;2023-02-01T15:59:15;11.45;;;7.25;;
67051;SDS011;53957;47.222;18.670;2023-02-01T16:02:25;14.75;;;7.78;;
67051;SDS011;53957;47.222;18.670;2023-02-01T16:12:20;8.27;;;5.47;;
67051;SDS011;53957;47.222;18.670;2023-02-01T16:15:29;9.88;;;5.62;;
67051;SDS011;53957;47.222;18.670;2023-02-01T16:18:33;11.65;;;6.25;;
67051;SDS011;53957;47.222;18.670;2023-02-01T16:21:36;10.95;;;8.27;;
67051;SDS011;53957;47.222;18.670;2023-02-01T16:24:40;11.07;;;7.60;;
67051;SDS011;53957;47.222;18.670;2023-02-01T16:27:43;10.68;;;7.15;;
67051;SDS011;53957;47.222;18.670;2023-02-01T16:30:47;9.07;;;6.25;;
67051;SDS011;53957;47.222;18.670;2023-02-01T16:34:10;10.05;;;6.15;;
67051;SDS011;53957;47.222;18.670;2023-02-01T16:37:22;7.53;;;6.62;;
67051;SDS011;53957;47.222;18.670;2023-02-01T16:40:26;8.45;;;5.45;;
67051;SDS011;53957;47.222;18.670;2023-02-01T16:43:29;11.52;;;6.10;;
67051;SDS011;53957;47.222;18.670;2023-02-01T16:46:33;18.00;;;10.88;;
67051;SDS011;53957;47.222;18.670;2023-02-01T16:49:42;34.90;;;15.13;;
67051;SDS011;53957;47.222;18.670;2023-02-01T16:52:46;19.87;;;10.93;;
67051;SDS011;53957;47.222;18.670;2023-02-01T16:55:50;11.65;;;8.10;;
67051;SDS011;53957;47.222;18.670;2023-02-01T16:58:54;9.65;;;6.87;;
67051;SDS011;53957;47.222;18.670;2023-02-01T17:01:58;16.77;;;9.95;;
67051;SDS011;53957;47.222;18.670;2023-02-01T17:05:02;12.32;;;8.63;;
67051;SDS011;53957;47.222;18.670;2023-02-01T17:08:05;17.17;;;11.00;;
67051;SDS011;53957;47.222;18.670;2023-02-01T17:11:30;15.05;;;11.63;;
67051;SDS011;53957;47.222;18.670;2023-02-01T17:14:55;15.20;;;11.27;;
67051;SDS011;53957;47.222;18.670;2023-02-01T17:17:59;16.12;;;10.63;;
67051;SDS011;53957;47.222;18.670;2023-02-01T17:21:04;18.30;;;11.38;;
67051;SDS011;53957;47.222;18.670;2023-02-01T17:24:09;9.95;;;7.18;;
67051;SDS011;53957;47.222;18.670;2023-02-01T17:27:17;7.18;;;4.72;;
67051;SDS011;53957;47.222;18.670;2023-02-01T17:30:21;7.60;;;4.95;;
67051;SDS011;53957;47.222;18.670;2023-02-01T17:33:31;4.55;;;3.72;;
67051;SDS011;53957;47.222;18.670;2023-02-01T17:36:38;5.03;;;3.80;;
67051;SDS011;53957;47.222;18.670;2023-02-01T17:39:41;5.95;;;3.30;;
67051;SDS011;53957;47.222;18.670;2023-02-01T17:43:13;3.40;;;3.12;;
67051;SDS011;53957;47.222;18.670;2023-02-01T17:46:17;4.95;;;3.92;;
67051;SDS011;53957;47.222;18.670;2023-02-01T17:49:22;5.20;;;3.60;;
67051;SDS011;53957;47.222;18.670;2023-02-01T17:52:47;2.67;;;2.47;;
67051;SDS011;53957;47.222;18.670;2023-02-01T17:55:50;4.62;;;2.62;;
67051;SDS011;53957;47.222;18.670;2023-02-01T17:58:54;2.00;;;1.90;;
67051;SDS011;53957;47.222;18.670;2023-02-01T18:01:57;2.00;;;1.90;;
67051;SDS011;53957;47.222;18.670;2023-02-01T18:05:17;1.92;;;1.80;;
67051;SDS011;53957;47.222;18.670;2023-02-01T18:08:28;2.12;;;1.55;;
67051;SDS011;53957;47.222;18.670;2023-02-01T18:11:32;2.35;;;1.73;;
67051;SDS011;53957;47.222;18.670;2023-02-01T18:14:36;2.10;;;1.77;;
67051;SDS011;53957;47.222;18.670;2023-02-01T18:17:40;2.55;;;1.60;;
67051;SDS011;53957;47.222;18.670;2023-02-01T18:20:44;1.60;;;1.50;;
67051;SDS011;53957;47.222;18.670;2023-02-01T18:23:49;1.35;;;1.35;;
67051;SDS011;53957;47.222;18.670;2023-02-01T18:26:52;1.58;;;1.48;;
67051;SDS011;53957;47.222;18.670;2023-02-01T18:29:55;1.90;;;1.50;;
67051;SDS011;53957;47.222;18.670;2023-02-01T18:32:58;2.22;;;1.98;;
67051;SDS011;53957;47.222;18.670;2023-02-01T18:36:02;2.30;;;2.17;;
67051;SDS011;53957;47.222;18.670;2023-02-01T18:39:06;2.05;;;1.70;;
67051;SDS011;53957;47.222;18.670;2023-02-01T18:42:10;1.40;;;1.37;;
67051;SDS011;53957;47.222;18.670;2023-02-01T18:45:18;3.50;;;1.60;;
67051;SDS011;53957;47.222;18.670;2023-02-01T18:48:22;1.73;;;1.62;;
67051;SDS011;53957;47.222;18.670;2023-02-01T18:51:25;1.85;;;1.75;;
67051;SDS011;53957;47.222;18.670;2023-02-01T18:54:28;2.53;;;1.73;;
67051;SDS011;53957;47.222;18.670;2023-02-01T18:57:32;2.37;;;2.03;;
67051;SDS011;53957;47.222;18.670;2023-02-01T19:00:36;1.65;;;1.55;;
67051;SDS011;53957;47.222;18.670;2023-02-01T19:03:39;1.98;;;1.52;;
67051;SDS011;53957;47.222;18.670;2023-02-01T19:06:47;2.60;;;1.58;;
67051;SDS011;53957;47.222;18.670;2023-02-01T19:09:53;1.80;;;1.70;;
67051;SDS011;53957;47.222;18.670;2023-02-01T19:12:57;4.07;;;1.62;;
67051;SDS011;53957;47.222;18.670;2023-02-01T19:16:10;5.00;;;2.25;;
67051;SDS011;53957;47.222;18.670;2023-02-01T19:19:15;3.30;;;1.83;;
67051;SDS011;53957;47.222;18.670;2023-02-01T19:22:18;1.33;;;1.33;;
67051;SDS011;53957;47.222;18.670;2023-02-01T19:25:26;2.67;;;1.60;;
67051;SDS011;53957;47.222;18.670;2023-02-01T19:28:30;1.85;;;1.70;;
67051;SDS011;53957;47.222;18.670;2023-02-01T19:31:34;2.22;;;1.80;;
67051;SDS011;53957;47.222;18.670;2023-02-01T19:34:38;2.42;;;2.22;;
67051;SDS011;53957;47.222;18.670;2023-02-01T19:37:46;3.70;;;2.22;;
67051;SDS011;53957;47.222;18.670;2023-02-01T19:40:50;5.03;;;3.08;;
67051;SDS011;53957;47.222;18.670;2023-02-01T19:43:55;3.12;;;2.80;;
67051;SDS011;53957;47.222;18.670;2023-02-01T19:47:00;3.87;;;2.33;;
67051;SDS011;53957;47.222;18.670;2023-02-01T19:50:04;5.80;;;2.87;;
67051;SDS011;53957;47.222;18.670;2023-02-01T19:53:09;3.42;;;2.62;;
67051;SDS011;53957;47.222;18.670;2023-02-01T19:56:12;2.37;;;2.15;;
67051;SDS011;53957;47.222;18.670;2023-02-01T19:59:16;5.50;;;2.97;;
67051;SDS011;53957;47.222;18.670;2023-02-01T20:02:20;4.62;;;2.50;;
67051;SDS011;53957;47.222;18.670;2023-02-01T20:05:25;6.03;;;2.95;;
67051;SDS011;53957;47.222;18.670;2023-02-01T20:08:28;1.75;;;1.65;;
67051;SDS011;53957;47.222;18.670;2023-02-01T20:11:31;2.42;;;2.20;;
67051;SDS011;53957;47.222;18.670;2023-02-01T20:14:35;2.33;;;2.08;;
67051;SDS011;53957;47.222;18.670;2023-02-01T20:17:38;2.45;;;1.90;;
67051;SDS011;53957;47.222;18.670;2023-02-01T20:20:41;1.85;;;1.73;;
67051;SDS011;53957;47.222;18.670;2023-02-01T20:23:45;2.20;;;2.00;;
67051;SDS011;53957;47.222;18.670;2023-02-01T20:26:50;6.62;;;2.25;;
67051;SDS011;53957;47.222;18.670;2023-02-01T20:29:54;5.25;;;1.77;;
67051;SDS011;53957;47.222;18.670;2023-02-01T20:32:57;2.40;;;2.00;;
67051;SDS011;53957;47.222;18.670;2023-02-01T20:36:02;5.18;;;2.05;;
67051;SDS011;53957;47.222;18.670;2023-02-01T20:39:07;2.90;;;1.83;;
67051;SDS011;53957;47.222;18.670;2023-02-01T20:42:12;2.22;;;2.08;;
67051;SDS011;53957;47.222;18.670;2023-02-01T20:45:15;3.03;;;1.90;;
67051;SDS011;53957;47.222;18.670;2023-02-01T20:48:19;2.47;;;1.98;;
67051;SDS011;53957;47.222;18.670;2023-02-01T21:07:58;3.40;;;2.33;;
67051;SDS011;53957;47.222;18.670;2023-02-01T21:11:03;2.80;;;2.50;;
67051;SDS011;53957;47.222;18.670;2023-02-01T21:14:09;4.12;;;2.20;;
67051;SDS011;53957;47.222;18.670;2023-02-01T21:17:13;2.33;;;2.12;;
67051;SDS011;53957;47.222;18.670;2023-02-01T21:20:16;7.35;;;2.47;;
67051;SDS011;53957;47.222;18.670;2023-02-01T21:23:20;5.35;;;2.53;;
67051;SDS011;53957;47.222;18.670;2023-02-01T21:26:24;5.35;;;2.90;;
67051;SDS011;53957;47.222;18.670;2023-02-01T21:29:28;3.12;;;2.12;;
67051;SDS011;53957;47.222;18.670;2023-02-01T21:32:31;2.58;;;2.37;;
67051;SDS011;53957;47.222;18.670;2023-02-01T21:35:38;3.97;;;2.45;;
67051;SDS011;53957;47.222;18.670;2023-02-01T21:38:49;3.95;;;2.75;;
67051;SDS011;53957;47.222;18.670;2023-02-01T21:41:55;2.87;;;2.28;;
67051;SDS011;53957;47.222;18.670;2023-02-01T21:45:18;3.70;;;2.40;;
67051;SDS011;53957;47.222;18.670;2023-02-01T21:48:21;3.42;;;2.65;;
67051;SDS011;53957;47.222;18.670;2023-02-01T21:51:25;3.03;;;2.30;;
67051;SDS011;53957;47.222;18.670;2023-02-01T21:54:29;7.62;;;2.85;;
67051;SDS011;53957;47.222;18.670;2023-02-01T21:57:32;5.03;;;2.45;;
67051;SDS011;53957;47.222;18.670;2023-02-01T22:00:35;5.70;;;2.62;;
67051;SDS011;53957;47.222;18.670;2023-02-01T22:03:38;2.33;;;2.12;;
67051;SDS011;53957;47.222;18.670;2023-02-01T22:06:42;2.00;;;1.90;;
67051;SDS011;53957;47.222;18.670;2023-02-01T22:09:49;2.58;;;2.37;;
67051;SDS011;53957;47.222;18.670;2023-02-01T22:12:52;3.85;;;2.28;;
67051;SDS011;53957;47.222;18.670;2023-02-01T22:15:56;2.72;;;2.12;;
67051;SDS011;53957;47.222;18.670;2023-02-01T22:18:59;2.58;;;2.28;;
67051;SDS011;53957;47.222;18.670;2023-02-01T22:22:02;2.47;;;2.12;;
67051;SDS011;53957;47.222;18.670;2023-02-01T22:25:05;2.75;;;2.00;;
67051;SDS011;53957;47.222;18.670;2023-02-01T22:28:11;5.20;;;2.40;;
67051;SDS011;53957;47.222;18.670;2023-02-01T22:31:33;4.15;;;1.92;;
67051;SDS011;53957;47.222;18.670;2023-02-01T22:34:37;3.47;;;2.45;;
67051;SDS011;53957;47.222;18.670;2023-02-01T22:37:40;8.30;;;2.30;;
67051;SDS011;53957;47.222;18.670;2023-02-01T22:40:52;3.25;;;2.65;;
67051;SDS011;53957;47.222;18.670;2023-02-01T22:43:56;2.25;;;2.05;;
67051;SDS011;53957;47.222;18.670;2023-02-01T22:47:03;5.20;;;3.30;;
67051;SDS011;53957;47.222;18.670;2023-02-01T22:50:06;3.15;;;2.60;;
67051;SDS011;53957;47.222;18.670;2023-02-01T22:53:10;5.03;;;2.50;;
67051;SDS011;53957;47.222;18.670;2023-02-01T22:56:14;6.37;;;2.58;;
67051;SDS011;53957;47.222;18.670;2023-02-01T22:59:18;3.58;;;2.45;;
67051;SDS011;53957;47.222;18.670;2023-02-01T23:02:21;9.55;;;5.55;;
67051;SDS011;53957;47.222;18.670;2023-02-01T23:05:25;8.32;;;4.18;;
67051;SDS011;53957;47.222;18.670;2023-02-01T23:08:27;7.43;;;4.32;;
67051;SDS011;53957;47.222;18.670;2023-02-01T23:11:31;7.22;;;3.62;;
67051;SDS011;53957;47.222;18.670;2023-02-01T23:14:34;6.60;;;4.22;;
67051;SDS011;53957;47.222;18.670;2023-02-01T23:17:56;8.45;;;5.07;;
67051;SDS011;53957;47.222;18.670;2023-02-01T23:21:07;9.32;;;5.45;;
67051;SDS011;53957;47.222;18.670;2023-02-01T23:24:12;4.50;;;3.28;;
67051;SDS011;53957;47.222;18.670;2023-02-01T23:27:15;4.43;;;2.95;;
67051;SDS011;53957;47.222;18.670;2023-02-01T23:30:18;3.28;;;2.85;;
67051;SDS011;53957;47.222;18.670;2023-02-01T23:33:24;4.80;;;2.92;;
67051;SDS011;53957;47.222;18.670;2023-02-01T23:36:28;2.28;;;2.17;;
67051;SDS011;53957;47.222;18.670;2023-02-01T23:39:34;2.50;;;2.10;;
67051;SDS011;53957;47.222;18.670;2023-02-01T23:42:37;3.72;;;2.53;;
67051;SDS011;53957;47.222;18.670;2023-02-01T23:45:40;3.33;;;2.75;;
67051;SDS011;53957;47.222;18.670;2023-02-01T23:48:44;4.62;;;2.58;;
67051;SDS011;53957;47.222;18.670;2023-02-01T23:51:47;2.78;;;2.53;;
67051;SDS011;53957;47.222;18.670;2023-02-01T23:54:54;2.85;;;2.65;;
67051;SDS011;53957;47.222;18.670;2023-02-01T23:57:57;4.10;;;2.90;;
